Time;durP1;ratioP1;P1;durP2;ratioP2;P2;SDS_P1;SDS_P2;PMS_P1;PMS_P2;Temp;Humidity;BMP_temperature;BMP_pressure;BME280_temperature;BME280_humidity;BME280_pressure;Samples;Min_cycle;Max_cycle;Signal;HPM_P1;HPM_P2
2021/01/02 00:02:25;;;;;;;32;22.5;;;;;;;-1.92;87.94238;98472.44;;;;
2021/01/02 00:12:23;;;;;;;34.8;24.1;;;;;;;-1.79;87.0957;98487.23;;;;
2021/01/02 00:22:20;;;;;;;37.3;25.4;;;;;;;-1.83;87.05371;98486.89;;;;
2021/01/02 00:32:18;;;;;;;40.4;25;;;;;;;-1.9;87.55469;98494.13;;;;
2021/01/02 00:42:16;;;;;;;37.4;28.5;;;;;;;-2.23;88.97949;98489.41;;;;
2021/01/02 00:52:13;;;;;;;42.4;26.9;;;;;;;-2.32;89.78027;98506.59;;;;
2021/01/02 01:02:11;;;;;;;39;28.6;;;;;;;-2.15;89.3457;98525.2;;;;
2021/01/02 01:12:08;;;;;;;45.3;34.7;;;;;;;-2.48;89.7793;98504.61;;;;
2021/01/02 01:22:06;;;;;;;45.1;31.7;;;;;;;-2.43;89.7666;98494.16;;;;
2021/01/02 01:32:03;;;;;;;34;21.3;;;;;;;-2.43;88.94922;98510;;;;
2021/01/02 01:42:01;;;;;;;37.3;24.4;;;;;;;-2.56;89.30469;98497.81;;;;
2021/01/02 01:51:58;;;;;;;39.3;29.2;;;;;;;-2.57;89.16113;98509.39;;;;
2021/01/02 02:01:56;;;;;;;37.3;23.7;;;;;;;-2.37;88.24023;98513.59;;;;
2021/01/02 02:11:53;;;;;;;45.7;33.4;;;;;;;-2.47;88.63477;98506.23;;;;
2021/01/02 02:21:51;;;;;;;32.7;23.2;;;;;;;-2.37;88.50293;98503.03;;;;
2021/01/02 02:31:48;;;;;;;42.5;29.5;;;;;;;-2.32;88.00293;98496.03;;;;
2021/01/02 02:41:46;;;;;;;35.7;28.2;;;;;;;-2.12;88.22754;98485.17;;;;
2021/01/02 02:51:44;;;;;;;37.6;27.6;;;;;;;-1.95;88.6123;98487.94;;;;
2021/01/02 03:01:41;;;;;;;36.7;25;;;;;;;-1.68;87.7959;98497.8;;;;
2021/01/02 03:21:36;;;;;;;33.1;24.2;;;;;;;-1.8;87.53125;98496.98;;;;
2021/01/02 03:31:34;;;;;;;43.9;33.4;;;;;;;-1.77;87.06641;98487.83;;;;
2021/01/02 03:41:31;;;;;;;33.8;23.2;;;;;;;-1.71;87.45117;98500.91;;;;
2021/01/02 03:51:29;;;;;;;36.9;25.8;;;;;;;-1.53;86.78809;98490.19;;;;
2021/01/02 04:01:28;;;;;;;33.2;26.6;;;;;;;-1.48;85.84766;98494.78;;;;
2021/01/02 04:11:24;;;;;;;38.9;27.9;;;;;;;-1.85;86.56934;98498.72;;;;
2021/01/02 04:21:22;;;;;;;40.7;29.4;;;;;;;-1.95;87.06152;98501.14;;;;
2021/01/02 04:31:19;;;;;;;41.2;30.9;;;;;;;-2.17;87.94727;98512.25;;;;
2021/01/02 04:41:17;;;;;;;39.3;28.1;;;;;;;-2.3;88.38867;98496.63;;;;
2021/01/02 04:51:14;;;;;;;40.5;27.7;;;;;;;-2.42;88.91797;98500.25;;;;
2021/01/02 05:01:12;;;;;;;41.2;27.8;;;;;;;-2.48;88.83984;98514.35;;;;
2021/01/02 05:11:09;;;;;;;39;26.3;;;;;;;-2.5;88.71875;98517.23;;;;
2021/01/02 05:21:06;;;;;;;29;21;;;;;;;-2.66;89.32617;98531.04;;;;
2021/01/02 05:31:04;;;;;;;38.7;29.3;;;;;;;-2.74;89.95313;98529.52;;;;
2021/01/02 05:41:01;;;;;;;48.5;32.8;;;;;;;-2.76;90.51465;98536.86;;;;
2021/01/02 05:50:59;;;;;;;42.4;27.8;;;;;;;-2.73;90.55273;98546.14;;;;
2021/01/02 06:00:56;;;;;;;43.8;32.3;;;;;;;-2.8;91.00781;98546.23;;;;
2021/01/02 06:10:54;;;;;;;37.5;27.1;;;;;;;-2.83;90.8584;98548.52;;;;
2021/01/02 06:20:51;;;;;;;32;24.3;;;;;;;-2.85;90.39746;98559.3;;;;
2021/01/02 06:30:49;;;;;;;36.8;24.6;;;;;;;-2.95;90.38477;98558.21;;;;
2021/01/02 06:40:46;;;;;;;35;24.4;;;;;;;-2.99;90.58398;98572.86;;;;
2021/01/02 06:50:44;;;;;;;47.1;27.6;;;;;;;-3;90.96484;98569.41;;;;
2021/01/02 07:00:41;;;;;;;30.7;23.8;;;;;;;-2.84;90.50781;98567.98;;;;
2021/01/02 07:10:38;;;;;;;36.1;21.9;;;;;;;-2.84;90.4209;98586.45;;;;
2021/01/02 07:20:36;;;;;;;31.9;24.3;;;;;;;-2.79;90.97656;98583.97;;;;
2021/01/02 07:30:33;;;;;;;30.5;21.5;;;;;;;-2.53;90.67285;98583.61;;;;
2021/01/02 07:40:33;;;;;;;31.1;22.8;;;;;;;-2.34;90.35254;98597.58;;;;
2021/01/02 07:50:30;;;;;;;35.1;24.5;;;;;;;-2.09;89.80762;98599.05;;;;
2021/01/02 08:00:29;;;;;;;35.7;25.8;;;;;;;-1.75;89.0918;98613.34;;;;
2021/01/02 08:10:23;;;;;;;34.2;24.7;;;;;;;-1.44;88.78516;98604.3;;;;
2021/01/02 08:20:21;;;;;;;36.8;27.1;;;;;;;-1.44;87.74512;98616.7;;;;
2021/01/02 08:30:18;;;;;;;38.3;26;;;;;;;-1.46;87.72168;98622.23;;;;
2021/01/02 08:40:16;;;;;;;28.1;22.5;;;;;;;-1.3;88.06934;98626.02;;;;
2021/01/02 08:50:14;;;;;;;48.9;30.2;;;;;;;-1.1;87.96973;98645.78;;;;
2021/01/02 09:00:11;;;;;;;43.1;33.2;;;;;;;-0.89;87.20215;98654.16;;;;
2021/01/02 09:10:09;;;;;;;36;28.4;;;;;;;-0.73;86.76367;98654.23;;;;
2021/01/02 09:20:06;;;;;;;33.2;29.6;;;;;;;-0.67;86.74414;98657.81;;;;
2021/01/02 09:30:04;;;;;;;36.3;28.7;;;;;;;-0.36;86.31348;98670.63;;;;
2021/01/02 09:40:02;;;;;;;56;36.1;;;;;;;-0.03;85.31641;98665.42;;;;
2021/01/02 09:50:00;;;;;;;46.1;32.1;;;;;;;0.39;85.42188;98663.25;;;;
2021/01/02 09:59:57;;;;;;;38.6;30.3;;;;;;;0.6;84.68262;98653.77;;;;
2021/01/02 10:09:55;;;;;;;42;33.6;;;;;;;0.98;83.91113;98656.48;;;;
2021/01/02 10:19:53;;;;;;;42.5;32.7;;;;;;;1.33;83.95703;98642.08;;;;
2021/01/02 10:29:51;;;;;;;43;34.7;;;;;;;1.55;83.24902;98628.81;;;;
2021/01/02 10:39:49;;;;;;;34.8;27.6;;;;;;;1.87;83.44629;98627.86;;;;
2021/01/02 10:49:47;;;;;;;40.3;29.5;;;;;;;2.24;82.64453;98606.67;;;;
2021/01/02 10:59:45;;;;;;;44;33.4;;;;;;;2.43;81.4541;98609.76;;;;
2021/01/02 11:09:43;;;;;;;40.8;29.8;;;;;;;2.57;80.67188;98599.48;;;;
2021/01/02 11:19:41;;;;;;;43.1;32;;;;;;;2.8;80.41699;98591.13;;;;
2021/01/02 11:29:39;;;;;;;40.4;31.9;;;;;;;3.13;80.22168;98597.94;;;;
2021/01/02 11:39:37;;;;;;;34.9;31.2;;;;;;;3.28;79.78613;98580.19;;;;
2021/01/02 11:49:35;;;;;;;36.5;29.3;;;;;;;3.1;80.27246;98569.17;;;;
2021/01/02 11:59:34;;;;;;;51.3;30.4;;;;;;;3.13;80.94336;98564.13;;;;
2021/01/02 12:09:32;;;;;;;36.9;28.2;;;;;;;3.29;80.26465;98557.83;;;;
2021/01/02 12:19:30;;;;;;;41.7;32.2;;;;;;;3.18;79.56934;98553.52;;;;
2021/01/02 12:29:31;;;;;;;36.7;27;;;;;;;3.41;79.87793;98554.92;;;;
2021/01/02 12:39:31;;;;;;;47.4;42.3;;;;;;;3.18;81.00879;98558.84;;;;
2021/01/02 12:49:25;;;;;;;58.4;40.1;;;;;;;3.23;81.30566;98555.41;;;;
2021/01/02 12:59:23;;;;;;;45.8;32.8;;;;;;;3.39;80.9502;98565.86;;;;
2021/01/02 13:09:21;;;;;;;45;38.5;;;;;;;3.2;81.18945;98571.88;;;;
2021/01/02 13:19:19;;;;;;;44.4;35.6;;;;;;;3.37;80.53418;98570.63;;;;
2021/01/02 13:29:18;;;;;;;51.8;43.4;;;;;;;3.26;80.64746;98582.33;;;;
2021/01/02 13:39:16;;;;;;;65.2;50.3;;;;;;;3.05;81.20703;98597.38;;;;
2021/01/02 13:49:14;;;;;;;61.5;48.1;;;;;;;3;81.04004;98604.55;;;;
2021/01/02 13:59:12;;;;;;;56.6;47.3;;;;;;;2.67;82.09473;98599.55;;;;
2021/01/02 14:09:10;;;;;;;68.5;52.7;;;;;;;2.4;82.99414;98610.23;;;;
2021/01/02 14:19:08;;;;;;;54.1;43.8;;;;;;;2.35;82.8418;98616.34;;;;
2021/01/02 14:29:06;;;;;;;47.2;41.9;;;;;;;2.13;83.50586;98614.8;;;;
2021/01/02 14:39:04;;;;;;;59.3;46.9;;;;;;;1.84;85.08203;98633.64;;;;
2021/01/02 14:49:02;;;;;;;48.3;43.1;;;;;;;1.82;84.90039;98634.95;;;;
2021/01/02 14:59:00;;;;;;;48.9;40.5;;;;;;;1.73;84.75195;98631.95;;;;
2021/01/02 15:08:58;;;;;;;58.2;47;;;;;;;1.48;87.21484;98635.12;;;;
2021/01/02 15:18:56;;;;;;;54.4;42.5;;;;;;;1.39;87.59082;98627.81;;;;
2021/01/02 15:28:54;;;;;;;48.9;40.7;;;;;;;1.32;86.69531;98613.95;;;;
2021/01/02 15:38:52;;;;;;;70.2;51.6;;;;;;;1.14;86.34082;98611.58;;;;
2021/01/02 15:48:49;;;;;;;63.9;50.9;;;;;;;0.9;86.8877;98606.47;;;;
2021/01/02 15:58:47;;;;;;;68.5;49.2;;;;;;;0.72;87.5332;98612.08;;;;
2021/01/02 16:08:45;;;;;;;59.3;44.3;;;;;;;0.56;87.89355;98614.72;;;;
2021/01/02 16:18:43;;;;;;;53.4;44.2;;;;;;;0.43;87.08984;98606.06;;;;
2021/01/02 16:28:41;;;;;;;65;53.4;;;;;;;0.27;87.69238;98601.57;;;;
2021/01/02 16:38:39;;;;;;;83.6;55.9;;;;;;;0.22;88.42969;98625.33;;;;
2021/01/02 16:48:36;;;;;;;68.1;55.3;;;;;;;0.13;87.59668;98618.02;;;;
2021/01/02 16:58:34;;;;;;;92.7;66.1;;;;;;;0.03;88.32324;98601.95;;;;
2021/01/02 17:08:32;;;;;;;97;67.2;;;;;;;-0.08;88.66309;98601.77;;;;
2021/01/02 17:18:30;;;;;;;100.3;73.7;;;;;;;-0.02;89.19141;98600.81;;;;
2021/01/02 17:28:29;;;;;;;136.6;101.4;;;;;;;-0.14;88.4873;98592.11;;;;
2021/01/02 17:38:25;;;;;;;105.6;80.9;;;;;;;-0.11;88.55859;98588.2;;;;
2021/01/02 17:48:23;;;;;;;117;83.4;;;;;;;-0.07;88.73047;98591.98;;;;
2021/01/02 17:58:21;;;;;;;99.8;84;;;;;;;-0.07;88.61133;98592.77;;;;
2021/01/02 18:08:18;;;;;;;88.7;69.9;;;;;;;0.01;89.56934;98596.88;;;;
2021/01/02 18:18:16;;;;;;;91.1;68.2;;;;;;;0.09;89.16992;98604.44;;;;
2021/01/02 18:28:14;;;;;;;117;90.8;;;;;;;0.1;89.63184;98592;;;;
2021/01/02 18:38:11;;;;;;;97.2;66.4;;;;;;;0.06;88.76758;98598.81;;;;
2021/01/02 18:48:09;;;;;;;89.7;69.1;;;;;;;0.05;88.16211;98610.45;;;;
2021/01/02 18:58:07;;;;;;;89.1;73.8;;;;;;;-0.07;87.2627;98606;;;;
2021/01/02 19:08:05;;;;;;;93.9;72.7;;;;;;;-0.3;87.00488;98592.08;;;;
2021/01/02 19:18:02;;;;;;;76.8;63.3;;;;;;;-0.37;88.89941;98610.76;;;;
2021/01/02 19:28:00;;;;;;;97.5;71.9;;;;;;;-0.22;89.77441;98616.34;;;;
2021/01/02 19:37:58;;;;;;;115.9;86.7;;;;;;;-0.33;89.27734;98621.68;;;;
2021/01/02 19:47:59;;;;;;;111.1;75.4;;;;;;;-0.27;89.7959;98613.59;;;;
2021/01/02 19:57:53;;;;;;;86.3;65.9;;;;;;;-0.08;90.70215;98628.27;;;;
2021/01/02 20:07:51;;;;;;;76.1;58.8;;;;;;;0.04;90.13574;98614.94;;;;
2021/01/02 20:17:48;;;;;;;90.3;74.7;;;;;;;0.07;90.38281;98587.96;;;;
2021/01/02 20:27:46;;;;;;;75.2;61.9;;;;;;;0.06;90.04102;98591.67;;;;
2021/01/02 20:37:46;;;;;;;86;67.4;;;;;;;0.11;89.2832;98597.05;;;;
2021/01/02 20:47:42;;;;;;;83;71.2;;;;;;;0.11;89.30469;98597.05;;;;
2021/01/02 20:57:39;;;;;;;105.5;75.1;;;;;;;0.12;89.76953;98598.66;;;;
2021/01/02 21:07:38;;;;;;;84.8;64.7;;;;;;;0.32;90.52148;98584.92;;;;
2021/01/02 21:17:35;;;;;;;82.7;66.6;;;;;;;0.48;90.08398;98597.39;;;;
2021/01/02 21:27:32;;;;;;;76.2;66.2;;;;;;;0.48;89.25195;98600.84;;;;
2021/01/02 21:37:32;;;;;;;97.2;73.5;;;;;;;0.37;88.65625;98598.27;;;;
2021/01/02 21:47:30;;;;;;;84.1;67.5;;;;;;;0.13;88.75977;98602.11;;;;
2021/01/02 21:57:26;;;;;;;93.6;74.5;;;;;;;0.02;87.42188;98618.88;;;;
2021/01/02 22:07:23;;;;;;;105.7;73.8;;;;;;;-0.16;87.93359;98614.59;;;;
2021/01/02 22:17:21;;;;;;;104.4;83.5;;;;;;;-0.31;87.95703;98596.56;;;;
2021/01/02 22:27:19;;;;;;;101.1;73.3;;;;;;;-0.39;88.45508;98591.67;;;;
2021/01/02 22:37:16;;;;;;;94.7;71.5;;;;;;;-0.55;87.77539;98600.34;;;;
2021/01/02 22:47:15;;;;;;;99.8;76.8;;;;;;;-0.68;88.82129;98611.2;;;;
2021/01/02 22:57:12;;;;;;;104.8;80;;;;;;;-0.59;88.49121;98593.94;;;;
2021/01/02 23:07:09;;;;;;;105.2;80.6;;;;;;;-0.69;88.85449;98607.75;;;;
2021/01/02 23:17:07;;;;;;;86;71.3;;;;;;;-0.48;89.60938;98602.84;;;;
2021/01/02 23:27:05;;;;;;;118.2;86.1;;;;;;;-0.49;89.03516;98606.56;;;;
2021/01/02 23:37:02;;;;;;;124;84.5;;;;;;;-0.55;89.00293;98592.41;;;;
2021/01/02 23:47:00;;;;;;;84.5;69.1;;;;;;;-0.63;88.54785;98598.09;;;;
2021/01/02 23:56:58;;;;;;;106.6;84.4;;;;;;;-0.68;88.13184;98590.03;;;;
